createdAt,value
2024-05-09T00:00:40.700Z,10.61
2024-05-09T00:03:11.936Z,10.59
2024-05-09T00:05:43.194Z,10.40
2024-05-09T00:08:11.405Z,10.33
2024-05-09T00:10:41.703Z,10.48
2024-05-09T00:13:09.251Z,10.45
2024-05-09T00:15:36.659Z,10.21
2024-05-09T00:18:05.225Z,10.35
2024-05-09T00:20:38.035Z,10.21
2024-05-09T00:23:08.888Z,10.23
2024-05-09T00:25:36.125Z,10.08
2024-05-09T00:28:03.276Z,10.19
2024-05-09T00:30:35.054Z,10.05
2024-05-09T00:33:08.516Z,10.34
2024-05-09T00:35:40.073Z,10.32
2024-05-09T00:38:07.251Z,10.01
2024-05-09T00:40:39.702Z,10.06
2024-05-09T00:43:09.966Z,10.04
2024-05-09T00:45:36.986Z,10.15
2024-05-09T00:48:09.522Z,9.93
2024-05-09T00:50:40.366Z,9.87
2024-05-09T00:53:08.298Z,9.69
2024-05-09T00:55:39.056Z,9.69
2024-05-09T00:58:07.188Z,9.84
2024-05-09T01:03:15.332Z,9.58
2024-05-09T01:05:45.184Z,9.47
2024-05-09T01:08:12.832Z,9.41
2024-05-09T01:10:42.853Z,9.64
2024-05-09T01:13:11.865Z,9.44
2024-05-09T01:16:22.816Z,9.88
2024-05-09T01:18:49.896Z,9.85
2024-05-09T01:21:16.796Z,9.80
2024-05-09T01:23:43.703Z,9.61
2024-05-09T01:26:10.619Z,9.58
2024-05-09T01:28:37.421Z,9.57
2024-05-09T01:31:06.756Z,9.45
2024-05-09T01:33:33.795Z,9.26
2024-05-09T01:36:00.626Z,9.22
2024-05-09T01:38:27.441Z,9.39
2024-05-09T01:40:54.655Z,9.45
2024-05-09T01:43:21.466Z,9.39
2024-05-09T01:45:48.233Z,9.16
2024-05-09T01:48:15.311Z,9.22
2024-05-09T01:50:43.255Z,9.19
2024-05-09T01:53:16.024Z,9.03
2024-05-09T01:55:43.154Z,8.91
2024-05-09T01:58:11.935Z,8.93
2024-05-09T02:00:43.446Z,9.09
2024-05-09T02:03:15.225Z,9.12
2024-05-09T02:05:50.600Z,9.02
2024-05-09T02:08:19.273Z,9.20
2024-05-09T02:10:47.613Z,9.18
2024-05-09T02:13:15.090Z,9.05
2024-05-09T02:15:41.898Z,9.20
2024-05-09T02:18:10.396Z,9.24
2024-05-09T02:20:41.482Z,9.24
2024-05-09T02:26:42.973Z,9.06
2024-05-09T02:29:09.799Z,9.16
2024-05-09T02:31:36.704Z,8.78
2024-05-09T02:34:06.268Z,8.87
2024-05-09T02:36:35.359Z,9.06
2024-05-09T02:39:04.350Z,8.77
2024-05-09T02:41:31.284Z,8.76
2024-05-09T02:43:58.107Z,8.68
2024-05-09T02:46:24.912Z,8.89
2024-05-09T02:48:51.742Z,8.86
2024-05-09T02:51:21.693Z,8.79
2024-05-09T02:53:48.819Z,8.79
2024-05-09T02:56:15.870Z,8.91
2024-05-09T02:58:42.708Z,8.75
2024-05-09T03:01:09.521Z,8.59
2024-05-09T03:03:43.117Z,8.77
2024-05-09T03:06:10.010Z,8.79
2024-05-09T03:08:36.786Z,8.57
2024-05-09T03:11:06.047Z,8.79
2024-05-09T03:13:32.832Z,8.78
2024-05-09T03:16:00.012Z,8.65
2024-05-09T03:18:29.053Z,8.68
2024-05-09T03:20:55.913Z,8.57
2024-05-09T03:24:06.651Z,8.59
2024-05-09T03:26:35.702Z,8.65
2024-05-09T03:29:04.850Z,8.42
2024-05-09T03:31:31.784Z,8.44
2024-05-09T03:33:58.626Z,8.46
2024-05-09T03:36:25.575Z,8.32
2024-05-09T03:38:52.304Z,8.31
2024-05-09T03:46:05.627Z,8.19
2024-05-09T03:48:34.936Z,8.05
2024-05-09T03:51:01.887Z,8.20
2024-05-09T03:53:28.734Z,8.38
2024-05-09T03:55:57.024Z,8.27
2024-05-09T03:58:23.805Z,8.27
2024-05-09T04:00:50.619Z,8.07
2024-05-09T04:03:22.135Z,8.18
2024-05-09T04:05:51.462Z,8.41
2024-05-09T04:08:18.314Z,8.16
2024-05-09T04:10:48.255Z,8.47
2024-05-09T04:13:15.062Z,8.39
2024-05-09T04:15:43.300Z,8.65
2024-05-09T04:18:10.326Z,8.86
2024-05-09T04:20:39.939Z,8.81
2024-05-09T04:23:13.709Z,8.84
2024-05-09T04:25:42.197Z,8.76
2024-05-09T04:28:08.931Z,8.77
2024-05-09T04:30:42.489Z,9.00
2024-05-09T04:33:30.550Z,9.06
2024-05-09T04:35:57.636Z,8.84
2024-05-09T04:38:24.554Z,8.89
2024-05-09T04:40:51.545Z,9.10
2024-05-09T04:43:19.705Z,9.18
2024-05-09T04:45:46.605Z,9.23
2024-05-09T04:48:13.942Z,9.47
2024-05-09T04:50:41.039Z,9.75
2024-05-09T04:53:10.390Z,9.97
2024-05-09T04:55:38.354Z,10.03
2024-05-09T04:58:30.664Z,9.91
2024-05-09T05:00:57.562Z,10.08
2024-05-09T05:03:24.560Z,10.42
2024-05-09T05:06:16.294Z,10.62
2024-05-09T05:08:43.747Z,10.64
2024-05-09T05:11:19.763Z,10.71
2024-05-09T05:13:46.714Z,10.86
2024-05-09T05:16:13.441Z,10.87
2024-05-09T05:18:40.443Z,10.98
2024-05-09T05:21:07.352Z,11.05
2024-05-09T05:23:37.322Z,11.05
2024-05-09T05:26:05.258Z,11.04
2024-05-09T05:28:34.383Z,10.96
2024-05-09T05:31:01.242Z,11.29
2024-05-09T05:33:31.400Z,11.48
2024-05-09T05:35:58.426Z,11.58
2024-05-09T05:38:28.085Z,11.66
2024-05-09T05:40:55.694Z,11.70
2024-05-09T05:43:22.560Z,11.68
2024-05-09T05:45:49.398Z,11.67
2024-05-09T05:48:17.232Z,11.79
2024-05-09T05:51:09.592Z,11.79
2024-05-09T05:53:36.694Z,11.93
2024-05-09T05:56:04.584Z,11.95
2024-05-09T05:58:31.427Z,12.09
2024-05-09T06:00:58.246Z,12.24
2024-05-09T06:03:25.057Z,12.37
2024-05-09T06:05:54.193Z,12.28
2024-05-09T06:08:27.107Z,12.34
2024-05-09T06:10:55.799Z,12.43
2024-05-09T06:13:22.761Z,12.36
2024-05-09T06:15:52.364Z,12.76
2024-05-09T06:18:19.565Z,12.70
2024-05-09T06:20:46.602Z,12.70
2024-05-09T06:23:16.411Z,12.78
2024-05-09T06:25:44.132Z,12.90
2024-05-09T06:28:11.766Z,13.02
2024-05-09T06:30:42.233Z,13.04
2024-05-09T06:33:12.293Z,13.12
2024-05-09T06:35:41.304Z,13.24
2024-05-09T06:38:11.597Z,13.27
2024-05-09T06:40:41.322Z,13.29
2024-05-09T06:43:13.347Z,13.49
2024-05-09T06:45:40.409Z,13.53
2024-05-09T06:48:07.777Z,13.61
2024-05-09T06:50:37.968Z,13.69
2024-05-09T06:53:09.347Z,13.78
2024-05-09T06:55:39.335Z,13.94
2024-05-09T06:58:06.935Z,13.92
2024-05-09T07:00:39.099Z,13.97
2024-05-09T07:03:17.090Z,14.07
2024-05-09T07:05:46.643Z,14.13
2024-05-09T07:08:14.385Z,14.25
2024-05-09T07:10:44.871Z,14.30
2024-05-09T07:13:12.564Z,14.26
2024-05-09T07:15:39.677Z,14.40
2024-05-09T07:18:10.587Z,14.46
2024-05-09T07:20:38.218Z,14.60
2024-05-09T07:23:05.268Z,14.60
2024-05-09T07:25:32.296Z,14.70
2024-05-09T07:28:01.468Z,14.69
2024-05-09T07:30:33.309Z,14.86
2024-05-09T07:33:04.786Z,15.03
2024-05-09T07:35:31.846Z,15.05
2024-05-09T07:37:59.080Z,15.16
2024-05-09T07:40:33.124Z,15.24
2024-05-09T07:43:13.350Z,15.36
2024-05-09T07:45:51.104Z,15.31
2024-05-09T07:53:39.291Z,15.58
2024-05-09T07:56:09.874Z,15.66
2024-05-09T07:58:40.383Z,15.79
2024-05-09T08:01:07.642Z,15.87
2024-05-09T08:03:34.627Z,15.96
2024-05-09T08:06:02.531Z,15.90
2024-05-09T08:08:29.363Z,16.15
2024-05-09T08:10:56.265Z,16.19
2024-05-09T08:13:25.817Z,16.35
2024-05-09T08:16:00.111Z,16.49
2024-05-09T08:18:27.813Z,16.54
2024-05-09T08:20:54.657Z,16.59
2024-05-09T08:23:21.464Z,16.66
2024-05-09T08:25:49.798Z,16.75
2024-05-09T08:28:16.734Z,16.85
2024-05-09T08:30:43.582Z,16.88
2024-05-09T08:33:10.644Z,16.92
2024-05-09T08:35:44.944Z,17.09
2024-05-09T08:38:12.450Z,17.14
2024-05-09T08:40:39.396Z,17.34
2024-05-09T08:43:11.804Z,17.34
2024-05-09T08:45:43.780Z,17.40
2024-05-09T08:48:12.798Z,17.53
2024-05-09T08:50:43.225Z,17.76
2024-05-09T08:53:10.285Z,18.01
2024-05-09T08:55:40.616Z,18.04
2024-05-09T08:58:15.698Z,17.97
2024-05-09T09:00:43.607Z,18.13
2024-05-09T09:03:12.439Z,18.07
2024-05-09T09:05:40.980Z,18.13
2024-05-09T09:08:08.737Z,18.14
2024-05-09T09:10:39.749Z,18.20
2024-05-09T09:13:09.900Z,18.26
2024-05-09T09:15:47.093Z,18.27
2024-05-09T09:18:15.277Z,18.34
2024-05-09T09:20:42.308Z,18.39
2024-05-09T09:23:09.143Z,18.46
2024-05-09T09:25:38.988Z,18.51
2024-05-09T09:28:07.170Z,18.59
2024-05-09T09:30:37.460Z,18.26
2024-05-09T09:33:06.115Z,18.63
2024-05-09T09:39:34.127Z,18.77
2024-05-09T09:42:01.346Z,18.96
2024-05-09T09:44:28.744Z,18.67
2024-05-09T09:46:57.461Z,19.06
2024-05-09T09:49:51.773Z,19.14
2024-05-09T09:52:19.663Z,19.17
2024-05-09T09:58:42.156Z,19.38
2024-05-09T10:01:09.046Z,19.59
2024-05-09T10:03:36.155Z,19.72
2024-05-09T10:06:04.381Z,19.82
2024-05-09T10:08:31.126Z,19.97
2024-05-09T10:10:58.099Z,19.93
2024-05-09T10:13:32.751Z,20.04
2024-05-09T10:16:06.536Z,20.15
2024-05-09T10:18:37.105Z,20.24
2024-05-09T10:21:14.876Z,20.27
2024-05-09T10:23:43.765Z,20.35
2024-05-09T10:26:12.857Z,20.47
2024-05-09T10:28:43.164Z,20.55
2024-05-09T10:31:13.532Z,20.68
2024-05-09T10:33:48.958Z,20.48
2024-05-09T10:36:26.162Z,21.03
2024-05-09T10:38:53.913Z,20.81
2024-05-09T10:41:21.465Z,21.05
2024-05-09T10:43:48.480Z,21.11
2024-05-09T10:46:15.809Z,21.42
2024-05-09T10:48:45.821Z,21.52
2024-05-09T10:51:13.561Z,21.40
2024-05-09T10:53:44.370Z,21.64
2024-05-09T10:56:11.606Z,22.02
2024-05-09T10:58:38.453Z,21.72
2024-05-09T11:01:06.956Z,21.99
2024-05-09T11:03:34.634Z,22.23
2024-05-09T11:06:01.941Z,22.79
2024-05-09T11:08:32.591Z,22.97
2024-05-09T11:11:02.314Z,23.46
2024-05-09T11:13:36.503Z,23.84
2024-05-09T11:16:04.023Z,23.97
2024-05-09T11:18:35.202Z,23.78
2024-05-09T11:21:11.768Z,23.78
2024-05-09T11:23:41.362Z,24.48
2024-05-09T11:26:09.267Z,24.19
2024-05-09T11:28:36.179Z,26.20
2024-05-09T11:31:11.937Z,28.06
2024-05-09T11:33:47.933Z,29.47
2024-05-09T11:36:15.361Z,30.85
2024-05-09T11:38:42.355Z,29.95
2024-05-09T11:41:09.285Z,29.63
2024-05-09T11:43:36.091Z,30.23
2024-05-09T11:46:03.810Z,29.48
2024-05-09T11:48:34.205Z,30.34
2024-05-09T11:51:01.205Z,29.70
2024-05-09T11:53:30.939Z,29.97
2024-05-09T11:55:57.691Z,30.67
2024-05-09T11:58:29.071Z,30.83
2024-05-09T12:00:57.337Z,30.69
2024-05-09T12:03:26.501Z,29.71
2024-05-09T12:05:56.358Z,28.60
2024-05-09T12:08:23.280Z,28.35
2024-05-09T12:10:50.399Z,28.93
2024-05-09T12:13:17.456Z,28.77
2024-05-09T12:15:44.283Z,27.73
2024-05-09T12:18:11.275Z,27.26
2024-05-09T12:20:39.880Z,27.18
2024-05-09T12:23:09.504Z,26.69
2024-05-09T12:25:37.307Z,26.74
2024-05-09T12:28:04.531Z,27.26
2024-05-09T12:30:36.818Z,27.63
2024-05-09T12:33:11.586Z,27.15
2024-05-09T12:35:39.215Z,27.88
2024-05-09T12:38:05.962Z,28.39
2024-05-09T12:40:38.429Z,28.57
2024-05-09T12:43:09.983Z,28.98
2024-05-09T12:45:38.191Z,30.32
2024-05-09T12:48:09.609Z,30.30
2024-05-09T12:50:39.619Z,30.06
2024-05-09T12:53:06.450Z,30.02
2024-05-09T12:55:41.290Z,29.32
2024-05-09T13:00:57.257Z,28.93
2024-05-09T13:03:24.370Z,27.36
2024-05-09T13:05:51.790Z,26.10
2024-05-09T13:08:19.080Z,25.26
2024-05-09T13:10:46.153Z,24.90
2024-05-09T13:13:13.483Z,25.01
2024-05-09T13:15:40.742Z,26.18
2024-05-09T13:18:09.956Z,27.35
2024-05-09T13:20:37.162Z,27.49
2024-05-09T13:23:04.964Z,28.17
2024-05-09T13:25:34.452Z,27.33
2024-05-09T13:28:01.588Z,26.32
2024-05-09T13:30:37.365Z,25.46
2024-05-09T13:33:07.480Z,24.78
2024-05-09T13:35:35.658Z,24.47
2024-05-09T13:38:03.184Z,24.45
2024-05-09T13:40:34.279Z,25.33
2024-05-09T13:43:11.995Z,26.37
2024-05-09T13:49:16.922Z,28.12
2024-05-09T13:51:44.059Z,28.27
2024-05-09T13:54:10.897Z,27.94
2024-05-09T13:56:38.211Z,28.22
2024-05-09T13:59:05.089Z,28.19
2024-05-09T14:01:31.922Z,28.11
2024-05-09T14:03:58.952Z,28.25
2024-05-09T14:06:26.000Z,28.43
2024-05-09T14:08:52.838Z,28.48
2024-05-09T14:11:19.763Z,28.51
2024-05-09T14:13:46.567Z,28.00
2024-05-09T14:16:13.728Z,27.65
2024-05-09T14:18:41.120Z,27.49
2024-05-09T14:21:08.058Z,27.62
2024-05-09T14:23:34.805Z,27.33
2024-05-09T14:26:01.565Z,27.12
2024-05-09T14:28:29.017Z,26.94
2024-05-09T14:31:01.334Z,26.77
2024-05-09T14:33:30.754Z,26.53
2024-05-09T14:35:57.663Z,26.94
2024-05-09T14:38:24.799Z,26.40
2024-05-09T14:40:51.735Z,26.60
2024-05-09T14:43:19.080Z,26.50
2024-05-09T14:45:46.493Z,26.24
2024-05-09T14:48:15.110Z,25.91
2024-05-09T14:50:45.904Z,25.71
2024-05-09T14:53:13.684Z,25.77
2024-05-09T14:55:42.756Z,25.39
2024-05-09T14:58:12.651Z,25.16
2024-05-09T15:00:46.070Z,25.36
2024-05-09T15:03:16.993Z,25.88
2024-05-09T15:05:45.043Z,25.43
2024-05-09T15:08:12.022Z,25.88
2024-05-09T15:10:39.227Z,25.69
2024-05-09T15:13:08.710Z,25.55
2024-05-09T15:15:39.127Z,25.37
2024-05-09T15:18:06.365Z,25.23
2024-05-09T15:20:36.313Z,25.15
2024-05-09T15:23:04.935Z,25.16
2024-05-09T15:25:32.923Z,25.14
2024-05-09T15:27:59.923Z,24.93
2024-05-09T15:30:31.072Z,24.93
2024-05-09T15:33:01.004Z,25.06
2024-05-09T15:35:28.138Z,25.00
2024-05-09T15:37:55.463Z,24.90
2024-05-09T15:40:35.543Z,24.64
2024-05-09T15:43:07.278Z,24.56
2024-05-09T15:45:34.707Z,24.27
2024-05-09T15:48:02.577Z,24.57
2024-05-09T15:50:36.948Z,24.76
2024-05-09T15:53:08.238Z,24.85
2024-05-09T15:55:36.115Z,24.74
2024-05-09T15:58:04.045Z,24.75
2024-05-09T16:00:38.884Z,24.68
2024-05-09T16:03:15.254Z,24.66
2024-05-09T16:05:43.918Z,24.21
2024-05-09T16:08:15.848Z,23.94
2024-05-09T16:10:46.061Z,24.19
2024-05-09T16:13:14.039Z,24.44
2024-05-09T16:15:43.419Z,24.14
2024-05-09T16:18:10.980Z,24.45
2024-05-09T16:20:41.126Z,24.76
2024-05-09T16:23:10.273Z,24.68
2024-05-09T16:25:37.601Z,24.44
2024-05-09T16:28:08.335Z,24.76
2024-05-09T16:30:37.280Z,24.78
2024-05-09T16:33:05.132Z,24.96
2024-05-09T16:35:32.688Z,24.59
2024-05-09T16:38:01.467Z,24.58
2024-05-09T16:40:36.292Z,24.54
2024-05-09T16:43:06.993Z,24.43
2024-05-09T16:45:34.326Z,24.67
2024-05-09T16:48:01.552Z,24.39
2024-05-09T16:50:32.297Z,24.21
2024-05-09T16:53:02.533Z,24.27
2024-05-09T16:55:29.449Z,24.14
2024-05-09T16:57:56.876Z,23.90
2024-05-09T17:00:35.137Z,23.67
2024-05-09T17:03:08.031Z,23.43
2024-05-09T17:05:35.693Z,23.32
2024-05-09T17:08:03.122Z,23.46
2024-05-09T17:10:33.614Z,23.11
2024-05-09T17:13:03.426Z,22.79
2024-05-09T17:15:32.835Z,22.83
2024-05-09T17:18:02.025Z,22.89
2024-05-09T17:20:33.615Z,22.82
2024-05-09T17:23:04.565Z,22.60
2024-05-09T17:25:31.949Z,22.55
2024-05-09T17:28:05.654Z,22.52
2024-05-09T17:30:36.738Z,22.34
2024-05-09T17:33:06.242Z,22.13
2024-05-09T17:35:33.199Z,22.19
2024-05-09T17:38:01.914Z,22.14
2024-05-09T17:40:33.641Z,22.17
2024-05-09T17:43:03.938Z,22.30
2024-05-09T17:45:31.611Z,22.39
2024-05-09T17:47:59.223Z,22.31
2024-05-09T17:50:33.430Z,22.19
2024-05-09T17:53:03.084Z,22.25
2024-05-09T17:55:30.399Z,22.01
2024-05-09T17:57:57.710Z,21.94
2024-05-09T18:00:34.320Z,21.94
2024-05-09T18:03:06.317Z,22.01
2024-05-09T18:05:34.303Z,22.14
2024-05-09T18:08:01.468Z,22.03
2024-05-09T18:10:35.502Z,21.81
2024-05-09T18:13:06.356Z,21.93
2024-05-09T18:15:33.780Z,22.03
2024-05-09T18:18:01.044Z,21.88
2024-05-09T18:20:37.912Z,21.75
2024-05-09T18:23:10.598Z,21.54
2024-05-09T18:25:37.549Z,21.45
2024-05-09T18:28:04.932Z,21.48
2024-05-09T18:30:59.843Z,21.52
2024-05-09T18:33:26.946Z,21.41
2024-05-09T18:36:35.405Z,21.41
2024-05-09T18:39:03.245Z,20.98
2024-05-09T18:41:30.834Z,20.72
2024-05-09T18:44:00.458Z,20.68
2024-05-09T18:46:27.683Z,20.41
2024-05-09T18:48:55.178Z,20.47
2024-05-09T18:51:22.220Z,20.11
2024-05-09T18:53:52.471Z,20.31
2024-05-09T18:56:26.546Z,20.32
2024-05-09T18:58:53.339Z,20.15
2024-05-09T19:01:20.261Z,20.06
2024-05-09T19:03:48.650Z,19.84
2024-05-09T19:06:15.545Z,19.89
2024-05-09T19:08:44.760Z,19.73
2024-05-09T19:11:11.525Z,19.58
2024-05-09T19:13:38.409Z,19.54
2024-05-09T19:16:08.136Z,19.51
2024-05-09T19:18:39.439Z,19.49
2024-05-09T19:21:06.316Z,19.58
2024-05-09T19:23:38.028Z,19.48
2024-05-09T19:26:11.592Z,19.41
2024-05-09T19:28:44.962Z,19.12
2024-05-09T19:31:11.820Z,19.31
2024-05-09T19:33:38.689Z,19.66
2024-05-09T19:36:06.143Z,19.50
2024-05-09T19:38:35.641Z,19.13
2024-05-09T19:41:46.389Z,18.99
2024-05-09T19:44:13.157Z,19.12
2024-05-09T19:46:39.949Z,18.95
2024-05-09T19:49:07.026Z,18.68
2024-05-09T19:51:33.936Z,18.40
2024-05-09T19:54:00.952Z,18.40
2024-05-09T19:56:27.812Z,18.28
2024-05-09T19:59:00.133Z,18.23
2024-05-09T20:01:27.039Z,18.77
2024-05-09T20:03:59.143Z,18.51
2024-05-09T20:06:30.451Z,18.40
2024-05-09T20:08:58.480Z,18.28
2024-05-09T20:11:28.277Z,18.40
2024-05-09T20:13:57.045Z,18.47
2024-05-09T20:16:26.208Z,18.40
2024-05-09T20:18:53.275Z,18.36
2024-05-09T20:21:27.512Z,18.15
2024-05-09T20:23:54.621Z,18.33
2024-05-09T20:26:30.857Z,18.59
2024-05-09T20:28:58.753Z,18.47
2024-05-09T20:31:25.734Z,18.05
2024-05-09T20:33:59.949Z,17.95
2024-05-09T20:36:26.737Z,18.19
2024-05-09T20:38:53.491Z,17.76
2024-05-09T20:41:20.283Z,17.54
2024-05-09T20:43:47.065Z,17.60
2024-05-09T20:46:17.018Z,17.53
2024-05-09T20:48:44.086Z,17.83
2024-05-09T20:51:10.906Z,17.75
2024-05-09T20:53:40.086Z,17.76
2024-05-09T20:56:07.191Z,17.69
2024-05-09T20:58:34.808Z,17.41
2024-05-09T21:01:04.929Z,17.35
2024-05-09T21:03:32.783Z,17.26
2024-05-09T21:05:59.691Z,17.58
2024-05-09T21:08:27.106Z,17.43
2024-05-09T21:10:53.988Z,17.41
2024-05-09T21:13:20.990Z,17.41
2024-05-09T21:15:48.846Z,17.39
2024-05-09T21:18:15.807Z,17.43
2024-05-09T21:20:42.670Z,17.05
2024-05-09T21:23:09.428Z,17.27
2024-05-09T21:25:36.209Z,17.25
2024-05-09T21:28:04.120Z,16.88
2024-05-09T21:30:41.078Z,16.74
2024-05-09T21:33:11.683Z,16.64
2024-05-09T21:35:40.574Z,16.59
2024-05-09T21:38:07.917Z,16.75
2024-05-09T21:44:12.949Z,16.74
2024-05-09T21:46:39.820Z,16.43
2024-05-09T21:49:06.712Z,16.76
2024-05-09T21:51:35.841Z,16.72
2024-05-09T21:54:02.644Z,16.75
2024-05-09T21:56:29.390Z,16.61
2024-05-09T21:58:56.196Z,16.40
2024-05-09T22:01:22.926Z,16.31
2024-05-09T22:03:50.775Z,16.02
2024-05-09T22:06:20.664Z,16.09
2024-05-09T22:08:47.651Z,15.85
2024-05-09T22:11:19.644Z,15.83
2024-05-09T22:13:46.605Z,16.22
2024-05-09T22:16:13.434Z,16.10
2024-05-09T22:18:40.756Z,15.63
2024-05-09T22:21:07.619Z,15.27
2024-05-09T22:23:34.601Z,15.28
2024-05-09T22:26:01.344Z,15.19
2024-05-09T22:28:28.195Z,14.75
2024-05-09T22:30:57.923Z,14.67
2024-05-09T22:33:24.931Z,14.68
2024-05-09T22:35:51.763Z,14.73
2024-05-09T22:38:26.338Z,14.82
2024-05-09T22:40:53.284Z,15.01
2024-05-09T22:43:21.625Z,15.05
2024-05-09T22:45:50.564Z,15.01
2024-05-09T22:48:17.856Z,14.89
2024-05-09T22:50:46.644Z,15.03
2024-05-09T22:53:13.359Z,15.05
2024-05-09T22:55:40.209Z,15.00
2024-05-09T22:58:07.100Z,15.05
2024-05-09T23:00:36.962Z,14.78
2024-05-09T23:03:06.652Z,14.95
2024-05-09T23:05:33.679Z,14.95
2024-05-09T23:08:03.610Z,15.02
2024-05-09T23:10:36.042Z,14.65
2024-05-09T23:13:40.774Z,14.87
2024-05-09T23:16:10.209Z,15.01
2024-05-09T23:18:37.132Z,14.99
2024-05-09T23:21:04.095Z,14.92
2024-05-09T23:23:30.845Z,14.93
2024-05-09T23:25:57.569Z,14.93
2024-05-09T23:28:24.458Z,14.77
2024-05-09T23:30:51.649Z,14.92
2024-05-09T23:33:18.639Z,14.79
2024-05-09T23:35:47.746Z,14.84
2024-05-09T23:38:14.544Z,14.98
2024-05-09T23:40:43.837Z,15.00
2024-05-09T23:43:11.620Z,14.97
2024-05-09T23:45:42.136Z,15.06
2024-05-09T23:48:09.615Z,15.01
2024-05-09T23:50:41.983Z,14.70
2024-05-09T23:53:17.123Z,14.86
2024-05-09T23:55:44.682Z,14.85
2024-05-09T23:58:11.889Z,14.87
